Terminal Aerodrome Forecast
Issued by NWS

Home | Current Version | Previous Version | Text Only | Print | Product List | Glossary On
Versions: 1 2 3 4 5 6 7 8 9 10 11 12 13 14 15 16 17
000
FTUS44 KMAF 291700
TAFHOB
TAF
KHOB 291732Z 2918/3018 02019G26KT P6SM SCT090 OVC250
     FM292200 04014G20KT P6SM BKN070 OVC250
     FM301000 04010KT P6SM OVC050=

USA.gov is the U.S. government's official web portal to all federal, state and local government web resources and services.